createdAt,value
2023-07-15T00:00:51.093Z,403.08
2023-07-15T00:01:51.250Z,388.52
2023-07-15T00:02:51.171Z,366.70
2023-07-15T00:03:51.213Z,387.46
2023-07-15T00:04:51.195Z,388.19
2023-07-15T00:05:51.288Z,408.18
2023-07-15T00:06:51.338Z,403.22
2023-07-15T00:07:51.377Z,428.96
2023-07-15T00:08:51.413Z,456.51
2023-07-15T00:09:51.377Z,500.84
2023-07-15T00:10:51.741Z,491.60
2023-07-15T00:11:51.440Z,516.25
2023-07-15T00:12:51.615Z,549.66
2023-07-15T00:13:51.632Z,536.56
2023-07-15T00:14:51.649Z,537.58
2023-07-15T00:15:51.692Z,573.65
2023-07-15T00:16:51.713Z,569.09
2023-07-15T00:17:51.842Z,551.94
2023-07-15T00:18:51.718Z,570.02
2023-07-15T00:19:51.699Z,594.32
2023-07-15T00:20:51.745Z,634.37
2023-07-15T00:21:51.723Z,639.79
2023-07-15T00:22:51.838Z,571.62
2023-07-15T00:23:51.792Z,549.09
2023-07-15T00:24:51.870Z,542.19
2023-07-15T00:25:51.916Z,528.16
2023-07-15T00:26:51.913Z,530.10
2023-07-15T00:27:51.910Z,565.37
2023-07-15T00:28:51.959Z,581.08
2023-07-15T00:29:51.986Z,526.79
2023-07-15T00:30:52.041Z,542.47
2023-07-15T00:31:52.156Z,545.33
2023-07-15T00:32:52.190Z,554.64
2023-07-15T00:33:52.179Z,589.49
2023-07-15T00:34:52.255Z,572.05
2023-07-15T00:35:52.274Z,617.48
2023-07-15T00:36:52.303Z,628.45
2023-07-15T00:37:52.376Z,629.77
2023-07-15T00:38:52.394Z,626.18
2023-07-15T00:39:52.463Z,680.10
2023-07-15T00:40:52.525Z,701.63
2023-07-15T00:41:52.576Z,710.38
2023-07-15T00:42:52.637Z,728.00
2023-07-15T00:43:52.645Z,756.44
2023-07-15T00:44:52.698Z,782.18
2023-07-15T00:45:52.782Z,775.02
2023-07-15T00:46:52.816Z,803.71
2023-07-15T00:47:52.869Z,835.93
2023-07-15T00:48:52.930Z,833.52
2023-07-15T00:49:52.985Z,827.99
2023-07-15T00:50:53.035Z,822.02
2023-07-15T00:51:53.123Z,773.49
2023-07-15T00:52:53.179Z,786.40
2023-07-15T00:53:53.223Z,808.64
2023-07-15T00:54:53.326Z,774.50
2023-07-15T00:55:53.329Z,743.08
2023-07-15T00:56:53.404Z,764.40
2023-07-15T00:57:53.456Z,775.42
2023-07-15T00:58:53.517Z,747.53
2023-07-15T00:59:53.679Z,735.69
2023-07-15T01:00:53.625Z,755.08
2023-07-15T01:01:53.620Z,733.88
2023-07-15T01:02:53.724Z,712.76
2023-07-15T01:03:53.694Z,704.24
2023-07-15T01:04:53.711Z,676.66
2023-07-15T01:05:53.710Z,724.50
2023-07-15T01:06:53.727Z,712.30
2023-07-15T01:07:53.696Z,698.36
2023-07-15T01:08:53.734Z,694.06
2023-07-15T01:09:53.748Z,698.39
2023-07-15T01:10:54.203Z,717.86
2023-07-15T01:11:53.753Z,743.71
2023-07-15T01:12:53.754Z,708.13
2023-07-15T01:13:53.772Z,732.57
2023-07-15T01:14:53.740Z,714.85
2023-07-15T01:15:53.806Z,725.55
2023-07-15T01:16:53.721Z,749.50
2023-07-15T01:17:53.813Z,754.52
2023-07-15T01:18:53.724Z,773.94
2023-07-15T01:19:53.729Z,774.22
2023-07-15T01:20:53.755Z,808.18
2023-07-15T01:21:53.779Z,807.84
2023-07-15T01:22:53.749Z,754.58
2023-07-15T01:23:53.749Z,738.72
2023-07-15T01:24:53.765Z,715.82
2023-07-15T01:25:53.748Z,739.28
2023-07-15T01:26:53.772Z,726.27
2023-07-15T01:27:53.731Z,709.91
2023-07-15T01:28:53.771Z,706.68
2023-07-15T01:29:53.778Z,698.36
2023-07-15T01:30:53.913Z,747.10
2023-07-15T01:31:53.828Z,737.85
2023-07-15T01:32:53.895Z,705.13
2023-07-15T01:33:53.835Z,698.16
2023-07-15T01:34:53.857Z,734.97
2023-07-15T01:35:53.924Z,708.88
2023-07-15T01:36:53.952Z,721.45
2023-07-15T01:37:53.928Z,728.29
2023-07-15T01:38:53.917Z,747.18
2023-07-15T01:39:53.902Z,780.79
2023-07-15T01:40:53.953Z,759.23
2023-07-15T01:41:53.962Z,724.97
2023-07-15T01:42:53.977Z,729.64
2023-07-15T01:43:53.969Z,734.06
2023-07-15T01:44:53.978Z,708.53
2023-07-15T01:45:54.019Z,724.82
2023-07-15T01:46:54.133Z,732.69
2023-07-15T01:47:54.113Z,772.68
2023-07-15T01:48:54.106Z,761.72
2023-07-15T01:49:54.111Z,774.54
2023-07-15T01:50:54.194Z,772.98
2023-07-15T01:51:54.159Z,799.69
2023-07-15T01:52:54.186Z,853.04
2023-07-15T01:53:54.198Z,838.49
2023-07-15T01:54:54.264Z,881.05
2023-07-15T01:55:54.281Z,882.65
2023-07-15T01:56:54.322Z,855.80
2023-07-15T01:57:54.333Z,866.00
2023-07-15T01:58:54.354Z,847.56
2023-07-15T01:59:54.428Z,851.52
2023-07-15T02:00:54.582Z,818.83
2023-07-15T02:01:54.540Z,768.62
2023-07-15T02:02:54.741Z,714.02
2023-07-15T02:03:54.752Z,694.40
2023-07-15T02:04:54.669Z,757.23
2023-07-15T02:05:54.762Z,798.95
2023-07-15T02:06:54.847Z,839.88
2023-07-15T02:07:54.832Z,796.44
2023-07-15T02:08:56.679Z,851.97
2023-07-15T02:09:54.918Z,925.40
2023-07-15T02:10:54.869Z,942.77
2023-07-15T02:11:54.867Z,982.19
2023-07-15T02:12:54.856Z,952.27
2023-07-15T02:13:54.843Z,961.90
2023-07-15T02:14:54.860Z,981.24
2023-07-15T02:15:54.848Z,950.35
2023-07-15T02:16:54.900Z,911.87
2023-07-15T02:17:54.905Z,843.11
2023-07-15T02:18:54.827Z,769.21
2023-07-15T02:19:54.835Z,777.16
2023-07-15T02:20:54.875Z,799.08
2023-07-15T02:21:54.808Z,804.68
2023-07-15T02:22:54.819Z,859.26
2023-07-15T02:23:54.777Z,852.57
2023-07-15T02:24:54.806Z,906.30
2023-07-15T02:25:54.776Z,931.62
2023-07-15T02:26:55.700Z,880.66
2023-07-15T02:27:54.792Z,844.61
2023-07-15T02:28:54.778Z,888.77
2023-07-15T02:29:54.763Z,890.07
2023-07-15T02:30:54.769Z,774.98
2023-07-15T02:31:54.747Z,834.36
2023-07-15T02:32:54.769Z,818.81
2023-07-15T02:33:54.728Z,824.01
2023-07-15T02:34:54.691Z,801.99
2023-07-15T02:35:54.690Z,792.85
2023-07-15T02:36:54.702Z,813.54
2023-07-15T02:37:54.697Z,868.96
2023-07-15T02:38:54.657Z,932.29
2023-07-15T02:39:54.653Z,899.40
2023-07-15T02:40:54.674Z,930.49
2023-07-15T02:41:54.701Z,940.47
2023-07-15T02:42:54.619Z,933.40
2023-07-15T02:43:54.625Z,934.14
2023-07-15T02:44:54.640Z,935.65
2023-07-15T02:45:54.662Z,903.85
2023-07-15T02:46:54.658Z,909.32
2023-07-15T02:47:54.649Z,887.39
2023-07-15T02:48:54.650Z,821.39
2023-07-15T02:49:54.594Z,782.29
2023-07-15T02:50:54.615Z,737.55
2023-07-15T02:51:54.591Z,735.51
2023-07-15T02:52:54.578Z,706.98
2023-07-15T02:53:54.547Z,720.88
2023-07-15T02:54:54.565Z,737.77
2023-07-15T02:55:54.561Z,738.57
2023-07-15T02:56:54.573Z,805.08
2023-07-15T02:57:54.627Z,821.86
2023-07-15T02:58:54.581Z,807.01
2023-07-15T02:59:54.575Z,770.97
2023-07-15T03:00:54.608Z,756.54
2023-07-15T03:01:54.703Z,744.39
2023-07-15T03:02:54.684Z,692.32
2023-07-15T03:03:54.609Z,656.62
2023-07-15T03:04:54.682Z,644.95
2023-07-15T03:05:54.630Z,653.30
2023-07-15T03:06:54.648Z,683.64
2023-07-15T03:07:54.623Z,646.50
2023-07-15T03:08:54.652Z,649.94
2023-07-15T03:09:54.624Z,657.21
2023-07-15T03:10:54.670Z,699.84
2023-07-15T03:11:54.668Z,729.87
2023-07-15T03:12:54.671Z,708.87
2023-07-15T03:13:54.671Z,746.29
2023-07-15T03:14:54.680Z,773.40
2023-07-15T03:15:54.713Z,784.71
2023-07-15T03:16:54.757Z,804.27
2023-07-15T03:17:54.751Z,824.03
2023-07-15T03:18:54.713Z,840.92
2023-07-15T03:19:54.763Z,829.48
2023-07-15T03:20:54.715Z,837.05
2023-07-15T03:21:54.807Z,794.84
2023-07-15T03:22:54.771Z,781.90
2023-07-15T03:23:54.718Z,770.64
2023-07-15T03:24:54.725Z,751.42
2023-07-15T03:25:54.729Z,721.79
2023-07-15T03:26:54.778Z,654.59
2023-07-15T03:27:54.758Z,627.64
2023-07-15T03:28:54.785Z,619.26
2023-07-15T03:29:54.813Z,605.35
2023-07-15T03:30:54.846Z,611.08
2023-07-15T03:31:54.869Z,591.66
2023-07-15T03:32:55.081Z,597.72
2023-07-15T03:33:54.924Z,599.81
2023-07-15T03:34:54.931Z,569.54
2023-07-15T03:35:54.940Z,597.28
2023-07-15T03:36:54.942Z,625.18
2023-07-15T03:37:54.984Z,620.02
2023-07-15T03:38:54.957Z,618.17
2023-07-15T03:39:54.996Z,620.76
2023-07-15T03:40:55.028Z,649.81
2023-07-15T03:41:55.039Z,675.57
2023-07-15T03:42:55.083Z,688.88
2023-07-15T03:43:55.086Z,727.09
2023-07-15T03:44:55.127Z,731.40
2023-07-15T03:45:55.203Z,761.10
2023-07-15T03:46:55.163Z,790.13
2023-07-15T03:47:55.210Z,798.86
2023-07-15T03:48:55.197Z,776.65
2023-07-15T03:49:55.253Z,790.63
2023-07-15T03:50:55.217Z,785.60
2023-07-15T03:51:55.275Z,743.17
2023-07-15T03:52:55.265Z,701.37
2023-07-15T03:53:55.291Z,680.70
2023-07-15T03:54:55.318Z,660.45
2023-07-15T03:55:55.356Z,634.82
2023-07-15T03:56:55.385Z,636.38
2023-07-15T03:57:55.417Z,626.69
2023-07-15T03:58:55.446Z,630.14
2023-07-15T03:59:55.457Z,663.36
2023-07-15T04:00:55.450Z,663.78
2023-07-15T04:01:56.334Z,678.79
2023-07-15T04:02:55.552Z,686.88
2023-07-15T04:03:55.653Z,660.07
2023-07-15T04:04:55.597Z,650.78
2023-07-15T04:05:55.628Z,594.04
2023-07-15T04:06:55.651Z,565.59
2023-07-15T04:07:55.688Z,552.55
2023-07-15T04:08:55.747Z,543.50
2023-07-15T04:09:55.789Z,559.44
2023-07-15T04:10:55.834Z,566.02
2023-07-15T04:11:55.857Z,560.18
2023-07-15T04:12:55.857Z,561.01
2023-07-15T04:13:55.933Z,549.80
2023-07-15T04:14:55.959Z,530.57
2023-07-15T04:15:56.075Z,528.71
2023-07-15T04:16:56.057Z,527.98
2023-07-15T04:17:56.143Z,517.07
2023-07-15T04:18:56.152Z,549.15
2023-07-15T04:19:56.162Z,543.01
2023-07-15T04:20:56.280Z,551.11
2023-07-15T04:21:56.299Z,569.37
2023-07-15T04:22:56.342Z,581.33
2023-07-15T04:23:58.585Z,575.17
2023-07-15T04:24:56.414Z,574.44
2023-07-15T04:25:56.471Z,583.73
2023-07-15T04:26:56.529Z,591.92
2023-07-15T04:27:56.686Z,609.76
2023-07-15T04:28:56.642Z,598.97
2023-07-15T04:29:56.725Z,593.11
2023-07-15T04:30:56.758Z,591.66
2023-07-15T04:31:56.834Z,606.46
2023-07-15T04:32:56.880Z,582.85
2023-07-15T04:33:56.898Z,574.33
2023-07-15T04:34:56.955Z,589.07
2023-07-15T04:35:57.034Z,565.55
2023-07-15T04:36:57.117Z,558.44
2023-07-15T04:37:57.112Z,528.88
2023-07-15T04:38:57.112Z,506.21
2023-07-15T04:39:57.147Z,477.15
2023-07-15T04:40:57.229Z,477.78
2023-07-15T04:41:57.322Z,474.87
2023-07-15T04:42:57.337Z,465.31
2023-07-15T04:43:57.355Z,463.89
2023-07-15T04:44:57.354Z,459.59
2023-07-15T04:45:57.492Z,449.40
2023-07-15T04:46:57.470Z,457.38
2023-07-15T04:47:57.540Z,468.43
2023-07-15T04:48:57.550Z,452.03
2023-07-15T04:49:57.600Z,453.68
2023-07-15T04:50:57.619Z,461.96
2023-07-15T04:51:57.656Z,490.48
2023-07-15T04:52:57.680Z,502.36
2023-07-15T04:53:57.721Z,506.36
2023-07-15T04:54:57.810Z,499.06
2023-07-15T04:55:57.776Z,506.54
2023-07-15T04:56:57.865Z,534.77
2023-07-15T04:57:57.884Z,521.04
2023-07-15T04:58:57.867Z,545.49
2023-07-15T04:59:57.933Z,570.56
2023-07-15T05:00:58.098Z,614.43
2023-07-15T05:01:58.019Z,642.67
2023-07-15T05:02:58.051Z,655.83
2023-07-15T05:03:58.099Z,664.00
2023-07-15T05:04:58.085Z,611.87
2023-07-15T05:05:58.105Z,571.11
2023-07-15T05:06:58.126Z,473.04
2023-07-15T05:07:59.275Z,383.28
2023-07-15T05:08:58.164Z,338.14
2023-07-15T05:09:58.183Z,293.66
2023-07-15T05:10:58.195Z,250.74
2023-07-15T05:11:58.258Z,230.33
2023-07-15T05:12:58.267Z,205.28
2023-07-15T05:13:58.243Z,200.81
2023-07-15T05:14:58.259Z,204.33
2023-07-15T05:15:58.315Z,200.11
2023-07-15T05:16:58.307Z,175.62
2023-07-15T05:17:58.340Z,159.76
2023-07-15T05:18:58.334Z,156.05
2023-07-15T05:19:58.360Z,158.96
2023-07-15T05:20:58.371Z,173.01
2023-07-15T05:21:58.383Z,159.37
2023-07-15T05:22:58.397Z,174.55
2023-07-15T05:23:58.373Z,188.66
2023-07-15T05:24:58.385Z,199.91
2023-07-15T05:25:58.460Z,216.61
2023-07-15T05:26:58.425Z,226.61
2023-07-15T05:27:58.423Z,198.06
2023-07-15T05:28:58.384Z,185.72
2023-07-15T05:29:58.386Z,177.36
2023-07-15T05:30:58.421Z,179.70
2023-07-15T05:31:58.497Z,183.65
2023-07-15T05:32:58.444Z,142.98
2023-07-15T05:33:58.422Z,129.69
2023-07-15T05:34:58.420Z,116.89
2023-07-15T05:35:58.441Z,116.75
2023-07-15T05:36:58.472Z,116.44
2023-07-15T05:37:58.442Z,120.61
2023-07-15T05:38:59.274Z,119.52
2023-07-15T05:39:58.419Z,118.03
2023-07-15T05:40:58.434Z,112.47
2023-07-15T05:41:58.472Z,109.69
2023-07-15T05:42:58.491Z,110.14
2023-07-15T05:43:58.513Z,111.59
2023-07-15T05:44:58.535Z,113.83
2023-07-15T05:45:58.600Z,94.97
2023-07-15T05:46:58.726Z,85.30
2023-07-15T05:47:58.825Z,84.99
2023-07-15T05:48:58.755Z,87.26
2023-07-15T05:49:58.837Z,80.49
2023-07-15T05:50:58.880Z,78.70
2023-07-15T05:51:58.972Z,70.08
2023-07-15T05:52:58.947Z,71.83
2023-07-15T05:53:58.998Z,73.29
2023-07-15T05:54:59.051Z,69.68
2023-07-15T05:55:59.073Z,63.75
2023-07-15T05:56:59.092Z,61.83
2023-07-15T05:57:59.137Z,61.23
2023-07-15T05:58:59.163Z,59.77
2023-07-15T05:59:59.141Z,55.45
2023-07-15T06:00:59.226Z,49.58
2023-07-15T06:01:59.218Z,48.26
2023-07-15T06:02:59.290Z,49.48
2023-07-15T06:03:59.372Z,50.84
2023-07-15T06:04:59.268Z,47.94
2023-07-15T06:05:59.297Z,45.98
2023-07-15T06:06:59.284Z,43.77
2023-07-15T06:07:59.293Z,43.13
2023-07-15T06:08:59.278Z,40.35
2023-07-15T06:09:59.332Z,40.96
2023-07-15T06:10:59.316Z,40.95
2023-07-15T06:11:59.696Z,39.45
2023-07-15T06:12:59.294Z,35.96
2023-07-15T06:13:59.309Z,33.81
2023-07-15T06:14:59.322Z,30.92
2023-07-15T06:15:59.457Z,30.94
2023-07-15T06:16:59.504Z,28.86
2023-07-15T06:17:59.604Z,29.84
2023-07-15T06:18:59.578Z,29.65
2023-07-15T06:19:59.625Z,26.69
2023-07-15T06:20:59.703Z,27.59
2023-07-15T06:21:59.764Z,27.79
2023-07-15T06:22:59.876Z,29.03
2023-07-15T06:23:59.872Z,29.01
2023-07-15T06:24:59.897Z,27.65
2023-07-15T06:25:59.973Z,29.91
2023-07-15T06:27:00.000Z,27.55
2023-07-15T06:27:59.989Z,21.24
2023-07-15T06:29:00.046Z,22.21
2023-07-15T06:30:00.065Z,22.51
2023-07-15T06:31:00.194Z,22.94
2023-07-15T06:32:00.200Z,23.55
2023-07-15T06:33:00.315Z,25.93
2023-07-15T06:34:00.287Z,27.67
2023-07-15T06:35:00.332Z,29.16
2023-07-15T06:36:00.370Z,29.30
2023-07-15T06:37:00.409Z,27.24
2023-07-15T06:38:00.430Z,22.99
2023-07-15T06:39:00.511Z,24.80
2023-07-15T06:40:00.502Z,27.32
2023-07-15T06:41:00.517Z,28.43
2023-07-15T06:42:00.588Z,25.38
2023-07-15T06:43:00.625Z,25.75
2023-07-15T06:44:00.575Z,26.57
2023-07-15T06:45:00.665Z,30.26
2023-07-15T06:46:00.638Z,30.35
2023-07-15T06:47:00.710Z,26.16
2023-07-15T06:48:00.700Z,24.23
2023-07-15T06:49:00.734Z,25.29
2023-07-15T06:50:00.722Z,31.17
2023-07-15T06:51:00.756Z,33.70
2023-07-15T06:52:00.769Z,31.34
2023-07-15T06:53:00.776Z,34.70
2023-07-15T06:54:00.771Z,29.73
2023-07-15T06:55:00.786Z,25.70
2023-07-15T06:56:09.866Z,27.19
2023-07-15T06:57:01.854Z,22.96
2023-07-15T06:58:00.871Z,20.45
2023-07-15T06:59:00.875Z,18.04
2023-07-15T07:00:00.856Z,17.46
2023-07-15T07:01:00.925Z,18.11
2023-07-15T07:02:00.860Z,21.54
2023-07-15T07:03:00.883Z,20.03
2023-07-15T07:04:00.818Z,21.23
2023-07-15T07:05:00.808Z,19.86
2023-07-15T07:06:00.888Z,17.27
2023-07-15T07:07:00.838Z,15.86
2023-07-15T07:08:00.820Z,13.22
2023-07-15T07:09:00.858Z,12.39
2023-07-15T07:10:00.906Z,13.28
2023-07-15T07:11:00.968Z,16.07
2023-07-15T07:12:01.028Z,12.67
2023-07-15T07:13:01.036Z,11.49
2023-07-15T07:14:01.088Z,8.60
2023-07-15T07:15:01.119Z,8.12
2023-07-15T07:16:01.150Z,8.41
2023-07-15T07:17:01.207Z,10.22
2023-07-15T07:18:01.272Z,10.07
2023-07-15T07:19:01.257Z,9.55
2023-07-15T07:20:03.818Z,8.36
2023-07-15T07:21:01.305Z,8.99
2023-07-15T07:22:01.288Z,9.98
2023-07-15T07:23:01.454Z,10.85
2023-07-15T07:24:01.227Z,16.25
2023-07-15T07:25:01.261Z,22.31
2023-07-15T07:26:01.249Z,21.79
2023-07-15T07:27:01.200Z,19.29
2023-07-15T07:28:01.251Z,20.21
2023-07-15T07:29:01.195Z,15.98
2023-07-15T07:30:01.280Z,10.95
2023-07-15T07:31:01.250Z,11.99
2023-07-15T07:32:01.188Z,10.63
2023-07-15T07:33:01.205Z,7.78
2023-07-15T07:34:01.147Z,6.74
2023-07-15T07:35:01.195Z,6.54
2023-07-15T07:36:01.177Z,6.55
2023-07-15T07:37:02.956Z,6.89
2023-07-15T07:38:01.173Z,6.71
2023-07-15T07:39:01.148Z,6.10
2023-07-15T07:40:01.138Z,6.10
2023-07-15T07:41:01.153Z,6.35
2023-07-15T07:42:01.116Z,5.54
2023-07-15T07:43:01.135Z,5.79
2023-07-15T07:44:01.148Z,6.42
2023-07-15T07:45:01.122Z,6.66
2023-07-15T07:46:01.132Z,6.31
2023-07-15T07:47:01.133Z,7.19
2023-07-15T07:48:01.101Z,7.93
2023-07-15T07:49:01.073Z,9.32
2023-07-15T07:50:01.148Z,8.95
2023-07-15T07:51:01.059Z,6.90
2023-07-15T07:52:01.074Z,6.61
2023-07-15T07:53:01.036Z,6.90
2023-07-15T07:54:01.088Z,3.98
2023-07-15T07:55:01.056Z,4.38
2023-07-15T07:56:01.051Z,3.89
2023-07-15T07:57:01.037Z,4.16
2023-07-15T07:58:01.031Z,4.16
2023-07-15T07:59:01.045Z,3.80
2023-07-15T08:00:01.038Z,4.44
2023-07-15T08:01:00.989Z,4.57
2023-07-15T08:02:00.996Z,2.88
2023-07-15T08:03:01.088Z,3.24
2023-07-15T08:04:01.049Z,3.63
2023-07-15T08:05:00.998Z,3.99
2023-07-15T08:06:00.972Z,3.05
2023-07-15T08:07:00.954Z,2.56
2023-07-15T08:08:00.955Z,2.13
2023-07-15T08:09:00.960Z,2.68
2023-07-15T08:10:00.986Z,2.70
2023-07-15T08:11:00.953Z,3.51
2023-07-15T08:12:00.959Z,2.78
2023-07-15T08:13:00.915Z,3.11
2023-07-15T08:14:00.923Z,3.11
2023-07-15T08:15:00.896Z,2.33
2023-07-15T08:16:00.922Z,1.81
2023-07-15T08:17:00.955Z,1.70
2023-07-15T08:18:00.925Z,1.82
2023-07-15T08:19:00.961Z,2.46
2023-07-15T08:20:00.962Z,2.16
2023-07-15T08:21:00.988Z,2.49
2023-07-15T08:22:01.075Z,3.18
2023-07-15T08:23:01.220Z,2.52
2023-07-15T08:24:01.172Z,2.29
2023-07-15T08:25:01.198Z,1.17
2023-07-15T08:26:01.219Z,0.60
2023-07-15T08:27:01.235Z,0.61
2023-07-15T08:28:01.210Z,0.56
2023-07-15T08:29:01.253Z,0.81
2023-07-15T08:30:01.312Z,0.72
2023-07-15T08:31:01.361Z,0.71
2023-07-15T08:32:01.445Z,0.79
2023-07-15T08:33:01.598Z,0.79
2023-07-15T08:34:01.493Z,0.86
2023-07-15T08:35:01.551Z,0.73
2023-07-15T08:36:01.571Z,0.69
2023-07-15T08:37:01.618Z,0.71
2023-07-15T08:38:01.606Z,0.63
2023-07-15T08:39:01.633Z,0.50
2023-07-15T08:40:01.650Z,0.56
2023-07-15T08:41:01.671Z,0.65
2023-07-15T08:42:01.769Z,0.77
2023-07-15T08:43:01.717Z,0.63
2023-07-15T08:44:01.757Z,0.60
2023-07-15T08:45:01.746Z,0.59
2023-07-15T08:46:01.806Z,0.67
2023-07-15T08:47:01.784Z,0.58
2023-07-15T08:48:01.802Z,0.56
2023-07-15T08:49:01.808Z,0.57
2023-07-15T08:50:01.769Z,0.66
2023-07-15T08:51:01.816Z,0.54
2023-07-15T08:52:01.852Z,0.52
2023-07-15T08:53:01.913Z,0.54
2023-07-15T08:54:02.001Z,0.59
2023-07-15T08:55:01.934Z,0.69
2023-07-15T08:56:01.959Z,0.68
2023-07-15T08:57:01.963Z,0.68
2023-07-15T08:58:01.951Z,0.78
2023-07-15T08:59:01.954Z,0.70
2023-07-15T09:00:01.926Z,0.56
2023-07-15T09:01:01.945Z,0.50
2023-07-15T09:02:02.013Z,0.54
2023-07-15T09:03:02.064Z,0.87
2023-07-15T09:04:02.090Z,0.94
2023-07-15T09:05:02.153Z,0.88
2023-07-15T09:06:02.087Z,0.89
2023-07-15T09:07:02.200Z,1.02
2023-07-15T09:08:02.191Z,1.14
2023-07-15T09:09:02.326Z,1.06
2023-07-15T09:10:02.404Z,0.92
2023-07-15T09:11:02.315Z,1.03
2023-07-15T09:12:02.370Z,1.00
2023-07-15T09:13:02.470Z,1.09
2023-07-15T09:14:02.374Z,1.02
2023-07-15T09:15:02.431Z,0.90
2023-07-15T09:16:02.557Z,0.67
2023-07-15T09:17:02.551Z,0.88
2023-07-15T09:18:02.595Z,0.92
2023-07-15T09:19:02.575Z,0.97
2023-07-15T09:20:02.583Z,1.05
2023-07-15T09:21:02.606Z,1.11
2023-07-15T09:22:02.577Z,1.22
2023-07-15T09:23:02.803Z,0.96
2023-07-15T09:24:02.615Z,0.85
2023-07-15T09:25:02.655Z,0.99
2023-07-15T09:26:02.676Z,0.91
2023-07-15T09:27:02.841Z,0.97
2023-07-15T09:28:02.728Z,0.64
2023-07-15T09:29:02.794Z,0.95
2023-07-15T09:30:02.851Z,0.88
2023-07-15T09:31:02.914Z,1.10
2023-07-15T09:32:02.957Z,1.01
2023-07-15T09:33:02.952Z,0.84
2023-07-15T09:34:02.934Z,0.74
2023-07-15T09:35:03.046Z,0.75
2023-07-15T09:36:03.108Z,1.02
2023-07-15T09:37:03.098Z,0.53
2023-07-15T09:38:03.060Z,0.57
2023-07-15T09:39:03.131Z,0.72
2023-07-15T09:40:03.185Z,0.80
2023-07-15T09:41:03.216Z,0.96
2023-07-15T09:42:03.276Z,1.14
2023-07-15T09:43:03.353Z,1.02
2023-07-15T09:44:03.410Z,1.06
2023-07-15T09:45:03.452Z,1.39
2023-07-15T09:46:03.522Z,1.60
2023-07-15T09:47:03.537Z,1.50
2023-07-15T09:48:03.680Z,1.63
2023-07-15T09:49:03.665Z,1.03
2023-07-15T09:50:03.691Z,0.92
2023-07-15T09:51:03.768Z,1.31
2023-07-15T09:52:03.844Z,0.99
2023-07-15T09:53:03.938Z,1.23
2023-07-15T09:54:03.927Z,1.20
2023-07-15T09:55:03.927Z,0.73
2023-07-15T09:56:03.964Z,0.76
2023-07-15T09:57:04.002Z,1.24
2023-07-15T09:58:03.968Z,1.07
2023-07-15T09:59:03.958Z,1.09
2023-07-15T10:00:04.093Z,0.81
2023-07-15T10:01:04.223Z,0.53
2023-07-15T10:02:04.157Z,0.57
2023-07-15T10:03:04.238Z,0.37
2023-07-15T10:04:04.296Z,0.36
2023-07-15T10:05:04.371Z,0.51
2023-07-15T10:06:04.350Z,0.50
2023-07-15T10:07:04.388Z,0.79
2023-07-15T10:08:04.424Z,0.98
2023-07-15T10:09:04.392Z,0.84
2023-07-15T10:10:04.449Z,1.20
2023-07-15T10:11:04.474Z,1.37
2023-07-15T10:12:04.553Z,1.28
2023-07-15T10:13:04.553Z,1.25
2023-07-15T10:14:04.577Z,1.48
2023-07-15T10:15:04.642Z,0.99
2023-07-15T10:16:04.683Z,0.56
2023-07-15T10:17:04.673Z,0.75
2023-07-15T10:18:04.750Z,1.40
2023-07-15T10:19:04.730Z,1.93
2023-07-15T10:20:04.778Z,1.92
2023-07-15T10:21:04.790Z,2.25
2023-07-15T10:22:04.805Z,1.51
2023-07-15T10:23:04.918Z,1.37
2023-07-15T10:24:04.848Z,1.35
2023-07-15T10:25:04.829Z,1.10
2023-07-15T10:26:04.813Z,0.97
2023-07-15T10:27:04.855Z,1.02
2023-07-15T10:28:04.917Z,0.87
2023-07-15T10:29:04.979Z,0.81
2023-07-15T10:30:05.030Z,0.76
2023-07-15T10:31:06.651Z,0.72
2023-07-15T10:32:05.128Z,0.58
2023-07-15T10:33:05.175Z,0.53
2023-07-15T10:34:05.129Z,0.70
2023-07-15T10:35:05.156Z,1.22
2023-07-15T10:36:05.228Z,0.99
2023-07-15T10:37:05.304Z,2.04
2023-07-15T10:38:05.345Z,1.11
2023-07-15T10:39:05.390Z,0.55
2023-07-15T10:40:05.367Z,0.58
2023-07-15T10:41:05.678Z,0.68
2023-07-15T10:42:05.464Z,0.54
2023-07-15T10:43:05.466Z,0.63
2023-07-15T10:44:05.478Z,0.73
2023-07-15T10:45:05.527Z,0.52
2023-07-15T10:46:05.514Z,0.59
2023-07-15T10:47:05.600Z,0.62
2023-07-15T10:48:05.608Z,0.52
2023-07-15T10:49:05.610Z,0.77
2023-07-15T10:50:05.666Z,0.76
2023-07-15T10:51:05.695Z,0.77
2023-07-15T10:52:05.719Z,0.89
2023-07-15T10:53:05.738Z,1.25
2023-07-15T10:54:05.717Z,1.34
2023-07-15T10:55:05.761Z,1.73
2023-07-15T10:56:05.809Z,2.92
2023-07-15T10:57:05.881Z,3.26
2023-07-15T10:58:05.949Z,3.01
2023-07-15T10:59:05.944Z,1.80
2023-07-15T11:00:08.714Z,1.82
2023-07-15T11:01:05.940Z,2.66
2023-07-15T11:02:05.953Z,1.64
2023-07-15T11:03:05.973Z,0.89
2023-07-15T11:04:05.921Z,0.78
2023-07-15T11:05:06.016Z,0.84
2023-07-15T11:06:07.906Z,0.86
2023-07-15T11:07:05.913Z,0.86
2023-07-15T11:08:05.909Z,0.67
2023-07-15T11:09:05.880Z,0.65
2023-07-15T11:10:05.865Z,0.43
2023-07-15T11:11:05.857Z,0.40
2023-07-15T11:12:08.111Z,0.51
2023-07-15T11:13:05.860Z,0.51
2023-07-15T11:14:05.869Z,0.55
2023-07-15T11:15:05.810Z,0.69
2023-07-15T11:16:05.917Z,1.03
2023-07-15T11:17:05.878Z,1.94
2023-07-15T11:18:05.873Z,2.23
2023-07-15T11:19:05.799Z,1.75
2023-07-15T11:20:05.813Z,0.84
2023-07-15T11:21:05.799Z,0.53
2023-07-15T11:22:05.801Z,0.34
2023-07-15T11:23:05.882Z,0.36
2023-07-15T11:24:05.838Z,0.74
2023-07-15T11:25:05.773Z,0.64
2023-07-15T11:26:05.765Z,0.62
2023-07-15T11:27:05.764Z,0.34
2023-07-15T11:28:05.779Z,0.39
2023-07-15T11:29:05.775Z,0.41
2023-07-15T11:30:05.727Z,0.88
2023-07-15T11:31:05.810Z,1.46
2023-07-15T11:32:05.756Z,0.94
2023-07-15T11:33:05.724Z,0.59
2023-07-15T11:34:05.695Z,0.47
2023-07-15T11:35:05.687Z,0.55
2023-07-15T11:36:05.692Z,0.46
2023-07-15T11:37:05.699Z,0.45
2023-07-15T11:38:05.695Z,0.57
2023-07-15T11:39:05.702Z,0.50
2023-07-15T11:40:06.610Z,0.60
2023-07-15T11:41:05.678Z,0.87
2023-07-15T11:42:05.663Z,1.33
2023-07-15T11:43:05.645Z,0.99
2023-07-15T11:44:05.683Z,0.67
2023-07-15T11:45:05.616Z,0.72
2023-07-15T11:46:05.709Z,1.00
2023-07-15T11:47:05.880Z,0.63
2023-07-15T11:48:05.640Z,0.54
2023-07-15T11:49:05.642Z,0.44
2023-07-15T11:50:05.622Z,0.51
2023-07-15T11:51:05.626Z,0.43
2023-07-15T11:52:05.597Z,0.40
2023-07-15T11:53:05.619Z,0.44
2023-07-15T11:54:05.574Z,0.41
2023-07-15T11:55:05.587Z,0.39
2023-07-15T11:56:05.580Z,0.42
2023-07-15T11:57:05.582Z,0.66
2023-07-15T11:58:05.571Z,0.65
2023-07-15T11:59:05.588Z,0.78
2023-07-15T12:00:05.564Z,0.62
2023-07-15T12:01:05.553Z,0.49
2023-07-15T12:02:05.605Z,0.48
2023-07-15T12:03:05.687Z,0.53
2023-07-15T12:04:05.539Z,0.54
2023-07-15T12:05:05.502Z,0.60
2023-07-15T12:06:05.500Z,0.59
2023-07-15T12:07:05.555Z,0.63
2023-07-15T12:08:05.507Z,0.73
2023-07-15T12:09:05.480Z,0.62
2023-07-15T12:10:05.552Z,0.86
2023-07-15T12:11:05.496Z,0.94
2023-07-15T12:12:05.486Z,0.89
2023-07-15T12:13:05.486Z,0.98
2023-07-15T12:14:05.519Z,0.68
2023-07-15T12:15:05.558Z,0.73
2023-07-15T12:16:05.629Z,0.80
2023-07-15T12:17:05.797Z,0.76
2023-07-15T12:18:05.695Z,0.76
2023-07-15T12:19:05.656Z,0.76
2023-07-15T12:20:05.721Z,0.69
2023-07-15T12:21:05.728Z,0.69
2023-07-15T12:22:05.788Z,0.70
2023-07-15T12:23:05.912Z,0.65
2023-07-15T12:24:05.793Z,0.58
2023-07-15T12:25:05.835Z,0.51
2023-07-15T12:26:05.883Z,0.55
2023-07-15T12:27:05.907Z,0.57
2023-07-15T12:28:05.991Z,0.60
2023-07-15T12:29:05.977Z,0.73
2023-07-15T12:30:06.039Z,0.82
2023-07-15T12:31:06.097Z,0.90
2023-07-15T12:32:06.112Z,0.73
2023-07-15T12:33:06.152Z,0.89
2023-07-15T12:34:06.126Z,0.87
2023-07-15T12:35:06.171Z,0.81
2023-07-15T12:36:06.214Z,0.82
2023-07-15T12:37:06.290Z,1.04
2023-07-15T12:38:06.281Z,0.92
2023-07-15T12:39:06.321Z,0.78
2023-07-15T12:40:06.361Z,0.95
2023-07-15T12:41:06.415Z,1.04
2023-07-15T12:42:06.419Z,0.93
2023-07-15T12:43:06.440Z,1.02
2023-07-15T12:44:06.488Z,0.94
2023-07-15T12:45:06.541Z,0.83
2023-07-15T12:46:06.613Z,1.03
2023-07-15T12:47:06.641Z,0.96
2023-07-15T12:48:06.668Z,0.95
2023-07-15T12:49:06.679Z,0.91
2023-07-15T12:50:06.699Z,0.90
2023-07-15T12:51:06.715Z,0.88
2023-07-15T12:52:06.719Z,0.96
2023-07-15T12:53:06.740Z,0.89